CJX7 weather

CLOSED Old Arctic Bay Airport
Arctic Bay, Nunavut, Canada

Public forecast

Using degrees Celsius for public forecast. Weather courtesy of forecast.io.

METAR (pilot weather report)

Report is more than 2 hours old.

Closest report is Arctic Bay Airport, 0.2 nm (0.3 km) W. Retrieved 2019/04/24 20:00 UTC (4 hours ago):

CYAB 242000Z 25003KT 25SM FEW005 FEW040 FEW220 M24/M28 A2994 RMK SC1SC1CI1 SC TR LAST STFD OBS/NXT 251100Z SLP145

TAF (pilot weather forecast)

Forecast is more than 6 hours old.

Closest forecast is Arctic Bay Airport, 0.2 nm (0.3 km) W. Retrieved 2019/04/24 13:00 UTC (11 hours ago):

TAF CYAB 241239Z 2413/2420 VRB03KT P6SM FEW007 BKN060 TEMPO 2413/2420 SCT060 BECMG 2416/2418 26008KT RMK NXT FCST WILL BE ISSUED AT 251245Z